地図

経路データ

SID SEASON NUMBER BASIN SUBBASIN NAME ISO_TIME NATURE LAT LON WMO_WIND WMO_PRES WMO_AGENCY TRACK_TYPE DIST2LAND LANDFALL IFLAG USA_AGENCY USA_ATCF_ID USA_LAT USA_LON USA_RECORD USA_STATUS USA_WIND USA_PRES USA_SSHS USA_R34_NE USA_R34_SE USA_R34_SW USA_R34_NW USA_R50_NE USA_R50_SE USA_R50_SW USA_R50_NW USA_R64_NE USA_R64_SE USA_R64_SW USA_R64_NW USA_POCI USA_ROCI USA_RMW USA_EYE TOKYO_LAT TOKYO_LON TOKYO_GRADE TOKYO_WIND TOKYO_PRES TOKYO_R50_DIR TOKYO_R50_LONG TOKYO_R50_SHORT TOKYO_R30_DIR TOKYO_R30_LONG TOKYO_R30_SHORT TOKYO_LAND CMA_LAT CMA_LON CMA_CAT CMA_WIND CMA_PRES HKO_LAT HKO_LON HKO_CAT HKO_WIND HKO_PRES NEWDELHI_LAT NEWDELHI_LON NEWDELHI_GRADE NEWDELHI_WIND NEWDELHI_PRES NEWDELHI_CI NEWDELHI_DP NEWDELHI_POCI REUNION_LAT REUNION_LON REUNION_TYPE REUNION_WIND REUNION_PRES REUNION_TNUM REUNION_CI REUNION_RMW REUNION_R34_NE REUNION_R34_SE REUNION_R34_SW REUNION_R34_NW REUNION_R50_NE REUNION_R50_SE REUNION_R50_SW REUNION_R50_NW REUNION_R64_NE REUNION_R64_SE REUNION_R64_SW REUNION_R64_NW BOM_LAT BOM_LON BOM_TYPE BOM_WIND BOM_PRES BOM_TNUM BOM_CI BOM_RMW BOM_R34_NE BOM_R34_SE BOM_R34_SW BOM_R34_NW BOM_R50_NE BOM_R50_SE BOM_R50_SW BOM_R50_NW BOM_R64_NE BOM_R64_SE BOM_R64_SW BOM_R64_NW BOM_ROCI BOM_POCI BOM_EYE BOM_POS_METHOD BOM_PRES_METHOD NADI_LAT NADI_LON NADI_CAT NADI_WIND NADI_PRES WELLINGTON_LAT WELLINGTON_LON WELLINGTON_WIND WELLINGTON_PRES DS824_LAT DS824_LON DS824_STAGE DS824_WIND DS824_PRES TD9636_LAT TD9636_LON TD9636_STAGE TD9636_WIND TD9636_PRES TD9635_LAT TD9635_LON TD9635_WIND TD9635_PRES TD9635_ROCI NEUMANN_LAT NEUMANN_LON NEUMANN_CLASS NEUMANN_WIND NEUMANN_PRES MLC_LAT MLC_LON MLC_CLASS MLC_WIND MLC_PRES USA_GUST BOM_GUST BOM_GUST_PER REUNION_GUST REUNION_GUST_PER USA_SEAHGT USA_SEARAD_NE USA_SEARAD_SE USA_SEARAD_SW USA_SEARAD_NW STORM_SPEED STORM_DIR
1992195N14254 1992 51 EP MM FRANK 1992-07-13 06:00:00 TS 14.1000 -105.800 25 1006 hurdat_epa main 530 530 O_____________ hurdat_epa EP071992 14.1000 -105.800 TD 25 1006 -1 4 221
1992195N14254 1992 51 EP MM FRANK 1992-07-13 09:00:00 TS 13.9475 -105.935 main 555 555 P_____________ EP071992 13.9475 -105.935 TD 25 1004 -1 4 224
1992195N14254 1992 51 EP MM FRANK 1992-07-13 12:00:00 TS 13.8000 -106.100 25 1003 hurdat_epa main 575 575 O_____________ hurdat_epa EP071992 13.8000 -106.100 TD 25 1003 -1 5 233
1992195N14254 1992 51 EP MM FRANK 1992-07-13 15:00:00 TS 13.6700 -106.320 main 595 595 P_____________ EP071992 13.6700 -106.320 TD 27 1002 -1 5 248
1992195N14254 1992 51 EP MM FRANK 1992-07-13 18:00:00 TS 13.6000 -106.600 30 1001 hurdat_epa main 621 621 O_____________ hurdat_epa EP071992 13.6000 -106.600 TD 30 1001 -1 6 264
1992195N14254 1992 51 EP MM FRANK 1992-07-13 21:00:00 TS 13.6050 -106.943 main 639 639 P_____________ EP071992 13.6050 -106.943 TD 32 1000 -1 7 278
1992195N14254 1992 51 EP MM FRANK 1992-07-14 00:00:00 TS 13.7000 -107.300 35 999 hurdat_epa main 655 653 O_____________ hurdat_epa EP071992 13.7000 -107.300 TS 35 999 0 7 292
1992195N14254 1992 51 EP MM FRANK 1992-07-14 03:00:00 TS 13.8625 -107.615 main 659 657 P_____________ EP071992 13.8625 -107.615 TS 37 998 0 7 304
1992195N14254 1992 51 EP MM FRANK 1992-07-14 06:00:00 TS 14.1000 -107.900 40 997 hurdat_epa main 659 641 O_____________ hurdat_epa EP071992 14.1000 -107.900 TS 40 997 0 7 315
1992195N14254 1992 51 EP MM FRANK 1992-07-14 09:00:00 TS 14.3849 -108.150 main 647 632 P_____________ EP071992 14.3849 -108.150 TS 45 995 0 8 321
1992195N14254 1992 51 EP MM FRANK 1992-07-14 12:00:00 TS 14.7000 -108.400 50 994 hurdat_epa main 632 619 O_____________ hurdat_epa EP071992 14.7000 -108.400 TS 50 994 0 8 320
1992195N14254 1992 51 EP MM FRANK 1992-07-14 15:00:00 TS 15.0150 -108.700 main 626 623 P_____________ EP071992 15.0150 -108.700 TS 52 992 0 8 316
1992195N14254 1992 51 EP MM FRANK 1992-07-14 18:00:00 TS 15.3000 -109.000 55 991 hurdat_epa main 623 623 O_____________ hurdat_epa EP071992 15.3000 -109.000 TS 55 991 0 7 312
1992195N14254 1992 51 EP MM FRANK 1992-07-14 21:00:00 TS 15.5150 -109.265 main 631 623 P_____________ EP071992 15.5150 -109.265 TS 57 989 0 6 310
1992195N14254 1992 51 EP MM FRANK 1992-07-15 00:00:00 TS 15.7000 -109.500 60 988 hurdat_epa main 631 622 O_____________ hurdat_epa EP071992 15.7000 -109.500 TS 60 988 0 6 314
1992195N14254 1992 51 EP MM FRANK 1992-07-15 03:00:00 TS 15.9149 -109.693 main 630 623 P_____________ EP071992 15.9149 -109.693 TS 62 987 0 6 316
1992195N14254 1992 51 EP MM FRANK 1992-07-15 06:00:00 TS 16.1000 -109.900 65 986 hurdat_epa main 631 631 O_____________ hurdat_epa EP071992 16.1000 -109.900 HU 65 986 1 6 304
1992195N14254 1992 51 EP MM FRANK 1992-07-15 09:00:00 TS 16.2300 -110.185 main 649 649 P_____________ EP071992 16.2300 -110.185 HU 67 984 1 6 289
1992195N14254 1992 51 EP MM FRANK 1992-07-15 12:00:00 TS 16.3000 -110.500 70 982 hurdat_epa main 668 668 O_____________ hurdat_epa EP071992 16.3000 -110.500 HU 70 982 1 6 278
1992195N14254 1992 51 EP MM FRANK 1992-07-15 15:00:00 TS 16.3150 -110.800 main 694 694 P_____________ EP071992 16.3150 -110.800 HU 72 980 1 6 270
1992195N14254 1992 51 EP MM FRANK 1992-07-15 18:00:00 TS 16.3000 -111.100 75 979 hurdat_epa main 721 721 O_____________ hurdat_epa EP071992 16.3000 -111.100 HU 75 979 1 6 269
1992195N14254 1992 51 EP MM FRANK 1992-07-15 21:00:00 TS 16.3075 -111.400 main 748 748 P_____________ EP071992 16.3075 -111.400 HU 77 977 1 6 270
1992195N14254 1992 51 EP MM FRANK 1992-07-16 00:00:00 TS 16.3000 -111.700 80 975 hurdat_epa main 759 759 O_____________ hurdat_epa EP071992 16.3000 -111.700 HU 80 975 1 6 265
1992195N14254 1992 51 EP MM FRANK 1992-07-16 03:00:00 TS 16.2574 -111.993 main 767 767 P_____________ EP071992 16.2574 -111.993 HU 82 973 1 6 260
1992195N14254 1992 51 EP MM FRANK 1992-07-16 06:00:00 TS 16.2000 -112.300 85 971 hurdat_epa main 787 787 O_____________ hurdat_epa EP071992 16.2000 -112.300 HU 85 971 2 6 259
1992195N14254 1992 51 EP MM FRANK 1992-07-16 09:00:00 TS 16.1424 -112.635 main 807 807 P_____________ EP071992 16.1424 -112.635 HU 87 969 2 7 262
1992195N14254 1992 51 EP MM FRANK 1992-07-16 12:00:00 TS 16.1000 -113.000 90 968 hurdat_epa main 822 822 O_____________ hurdat_epa EP071992 16.1000 -113.000 HU 90 968 2 7 267
1992195N14254 1992 51 EP MM FRANK 1992-07-16 15:00:00 TS 16.0999 -113.385 main 839 839 P_____________ EP071992 16.0999 -113.385 HU 92 966 2 8 270
1992195N14254 1992 51 EP MM FRANK 1992-07-16 18:00:00 TS 16.1000 -113.800 95 965 hurdat_epa main 858 858 O_____________ hurdat_epa EP071992 16.1000 -113.800 HU 95 965 2 8 267
1992195N14254 1992 51 EP MM FRANK 1992-07-16 21:00:00 TS 16.0574 -114.235 main 878 878 P_____________ EP071992 16.0574 -114.235 HU 97 963 3 9 263
1992195N14254 1992 51 EP MM FRANK 1992-07-17 00:00:00 TS 16.0000 -114.700 100 961 hurdat_epa main 915 915 O_____________ hurdat_epa EP071992 16.0000 -114.700 HU 100 961 3 9 263
1992195N14254 1992 51 EP MM FRANK 1992-07-17 03:00:00 TS 15.9498 -115.177 main 953 953 P_____________ EP071992 15.9498 -115.177 HU 102 959 3 10 264
1992195N14254 1992 51 EP MM FRANK 1992-07-17 06:00:00 TS 15.9000 -115.700 105 957 hurdat_epa main 984 984 O_____________ hurdat_epa EP071992 15.9000 -115.700 HU 105 957 3 11 265
1992195N14254 1992 51 EP MM FRANK 1992-07-17 09:00:00 TS 15.8499 -116.285 main 1032 1032 P_____________ EP071992 15.8500 -116.285 HU 107 955 3 12 265
1992195N14254 1992 51 EP MM FRANK 1992-07-17 12:00:00 TS 15.8000 -116.900 110 953 hurdat_epa main 1074 1074 O_____________ hurdat_epa EP071992 15.8000 -116.900 HU 110 953 3 12 264
1992195N14254 1992 51 EP MM FRANK 1992-07-17 15:00:00 TS 15.7348 -117.500 main 1125 1125 P_____________ EP071992 15.7348 -117.500 HU 112 950 3 12 265
1992195N14254 1992 51 EP MM FRANK 1992-07-17 18:00:00 TS 15.7000 -118.100 115 948 hurdat_epa main 1170 1170 O_____________ hurdat_epa EP071992 15.7000 -118.100 HU 115 948 4 11 270
1992195N14254 1992 51 EP MM FRANK 1992-07-17 21:00:00 TS 15.7348 -118.692 main 1216 1216 P_____________ EP071992 15.7348 -118.692 HU 117 944 4 12 275
1992195N14254 1992 51 EP MM FRANK 1992-07-18 00:00:00 TS 15.8000 -119.300 120 941 hurdat_epa main 1246 1246 O_____________ hurdat_epa EP071992 15.8000 -119.300 HU 120 941 4 12 275
1992195N14254 1992 51 EP MM FRANK 1992-07-18 03:00:00 TS 15.8424 -119.950 main 1291 1289 P_____________ EP071992 15.8424 -119.950 HU 122 938 4 13 275
1992195N14254 1992 51 EP MM FRANK 1992-07-18 06:00:00 TS 15.9000 -120.600 125 936 hurdat_epa main 1323 1323 O_____________ hurdat_epa EP071992 15.9000 -120.600 HU 125 936 4 12 276
1992195N14254 1992 51 EP MM FRANK 1992-07-18 09:00:00 TS 15.9771 -121.193 main 1357 1357 P_____________ EP071992 15.9771 -121.193 HU 125 935 4 12 280
1992195N14254 1992 51 EP MM FRANK 1992-07-18 12:00:00 TS 16.1000 -121.800 125 935 hurdat_epa main 1394 1394 O_____________ hurdat_epa EP071992 16.1000 -121.800 HU 125 935 4 13 284
1992195N14254 1992 51 EP MM FRANK 1992-07-18 15:00:00 TS 16.2849 -122.485 main 1431 1431 P_____________ EP071992 16.2849 -122.485 HU 122 935 4 14 287
1992195N14254 1992 51 EP MM FRANK 1992-07-18 18:00:00 TS 16.5000 -123.200 120 936 hurdat_epa main 1472 1472 O_____________ hurdat_epa EP071992 16.5000 -123.200 HU 120 936 4 14 286
1992195N14254 1992 51 EP MM FRANK 1992-07-18 21:00:00 TS 16.6848 -123.900 main 1515 1515 P_____________ EP071992 16.6848 -123.900 HU 117 938 4 14 287
1992195N14254 1992 51 EP MM FRANK 1992-07-19 00:00:00 TS 16.9000 -124.600 115 941 hurdat_epa main 1557 1557 O_____________ hurdat_epa EP071992 16.9000 -124.600 HU 115 941 4 14 290
1992195N14254 1992 51 EP MM FRANK 1992-07-19 03:00:00 TS 17.1773 -125.300 main 1578 1578 P_____________ EP071992 17.1773 -125.300 HU 112 943 3 15 294
1992195N14254 1992 51 EP MM FRANK 1992-07-19 06:00:00 TS 17.5000 -126.000 110 946 hurdat_epa main 1602 1601 O_____________ hurdat_epa EP071992 17.5000 -126.000 HU 110 946 3 15 297
1992195N14254 1992 51 EP MM FRANK 1992-07-19 09:00:00 TS 17.8422 -126.693 main 1629 1622 P_____________ EP071992 17.8422 -126.693 HU 107 949 3 15 298
1992195N14254 1992 51 EP MM FRANK 1992-07-19 12:00:00 TS 18.2000 -127.400 105 952 hurdat_epa main 1652 1652 O_____________ hurdat_epa EP071992 18.2000 -127.400 HU 105 952 3 16 297
1992195N14254 1992 51 EP MM FRANK 1992-07-19 15:00:00 TS 18.5574 -128.150 main 1687 1687 P_____________ EP071992 18.5574 -128.150 HU 102 955 3 16 296
1992195N14254 1992 51 EP MM FRANK 1992-07-19 18:00:00 TS 18.9000 -128.900 100 958 hurdat_epa main 1724 1724 O_____________ hurdat_epa EP071992 18.9000 -128.900 HU 100 958 3 15 295
1992195N14254 1992 51 EP MM FRANK 1992-07-19 21:00:00 TS 19.2071 -129.608 main 1763 1763 P_____________ EP071992 19.2071 -129.608 HU 97 961 3 15 294
1992195N14254 1992 51 EP MM FRANK 1992-07-20 00:00:00 TS 19.5000 -130.300 95 964 hurdat_epa main 1805 1805 O_____________ hurdat_epa EP071992 19.5000 -130.300 HU 95 964 2 14 294
1992195N14254 1992 51 EP MM FRANK 1992-07-20 03:00:00 TS 19.7998 -131.008 main 1849 1849 P_____________ EP071992 19.7998 -131.008 HU 92 966 2 14 294
1992195N14254 1992 51 EP MM FRANK 1992-07-20 06:00:00 TS 20.1000 -131.700 90 969 hurdat_epa main 1894 1894 O_____________ hurdat_epa EP071992 20.1000 -131.700 HU 90 969 2 14 296
1992195N14254 1992 51 EP MM FRANK 1992-07-20 09:00:00 TS 20.4147 -132.358 main 1942 1942 P_____________ EP071992 20.4147 -132.358 HU 85 971 2 14 296
1992195N14254 1992 51 EP MM FRANK 1992-07-20 12:00:00 TS 20.7000 -133.000 80 974 hurdat_epa main 1959 1956 O_____________ hurdat_epa EP071992 20.7000 -133.000 HU 80 974 1 13 292
1992195N14254 1992 51 EP MM FRANK 1992-07-20 15:00:00 TS 20.9074 -133.665 main 1985 1983 P_____________ EP071992 20.9074 -133.665 HU 77 976 1 13 288
1992195N14254 1992 51 EP MM FRANK 1992-07-20 18:00:00 TS 21.1000 -134.300 75 978 hurdat_epa main 2007 2007 O_____________ hurdat_epa EP071992 21.1000 -134.300 HU 75 978 1 12 291
1992195N14254 1992 51 EP MM FRANK 1992-07-20 21:00:00 TS 21.3422 -134.873 main 2029 2021 P_____________ EP071992 21.3422 -134.873 HU 75 980 1 11 296
1992195N14254 1992 51 EP MM FRANK 1992-07-21 00:00:00 TS 21.6000 -135.400 75 982 hurdat_epa main 2031 1981 O_____________ hurdat_epa EP071992 21.6000 -135.400 HU 75 982 1 11 298
1992195N14254 1992 51 EP MM FRANK 1992-07-21 03:00:00 TS 21.8498 -135.915 main 1981 1933 P_____________ EP071992 21.8498 -135.915 HU 72 984 1 11 298
1992195N14254 1992 51 EP MM FRANK 1992-07-21 06:00:00 TS 22.1000 -136.400 70 986 hurdat_epa main 1933 1894 O_____________ hurdat_epa EP071992 22.1000 -136.400 HU 70 986 1 10 300
1992195N14254 1992 51 EP MM FRANK 1992-07-21 09:00:00 TS 22.3497 -136.850 main 1884 1847 P_____________ EP071992 22.3497 -136.850 HU 67 988 1 10 301
1992195N14254 1992 51 EP MM FRANK 1992-07-21 12:00:00 TS 22.6000 -137.300 65 990 hurdat_epa main 1847 1799 O_____________ hurdat_epa EP071992 22.6000 -137.300 HU 65 990 1 10 300
1992195N14254 1992 51 EP MM FRANK 1992-07-21 15:00:00 TS 22.8499 -137.793 main 1799 1754 P_____________ EP071992 22.8499 -137.793 HU 60 992 0 11 298
1992195N14254 1992 51 EP MM FRANK 1992-07-21 18:00:00 TS 23.1000 -138.300 55 994 hurdat_epa main 1754 1710 O_____________ hurdat_epa EP071992 23.1000 -138.300 TS 55 994 0 10 300
1992195N14254 1992 51 EP MM FRANK 1992-07-21 21:00:00 TS 23.3646 -138.778 main 1710 1665 P_____________ EP071992 23.3646 -138.778 TS 52 995 0 10 299
1992195N14254 1992 51 EP MM FRANK 1992-07-22 00:00:00 TS 23.6000 -139.300 50 997 hurdat_epa main 1665 1609 O_____________ hurdat_epa EP071992 23.6000 -139.300 TS 50 997 0 12 290
1992195N14254 1992 51 EP MM FRANK 1992-07-22 03:00:00 TS 23.7654 -139.965 main 1601 1545 P_____________ EP071992 23.7654 -139.965 TS 47 998 0 12 284
1992195N14254 1992 51 EP CP FRANK 1992-07-22 06:00:00 TS 23.9000 -140.600 45 1000 hurdat_epa main 1545 1510 O_____________ hurdat_epa EP071992 23.9000 -140.600 TS 45 1000 0 10 286
1992195N14254 1992 51 EP CP FRANK 1992-07-22 09:00:00 TS 24.0363 -141.016 main 1510 1478 P_____________ EP071992 24.0344 -141.023 TS 42 1001 0 8 292
1992195N14254 1992 51 EP CP FRANK 1992-07-22 12:00:00 TS 24.2000 -141.400 40 1003 hurdat_epa main 1478 1437 O_____________ hurdat_epa EP071992 24.2000 -141.400 TS 40 1003 0 9 295
1992195N14254 1992 51 EP CP FRANK 1992-07-22 15:00:00 TS 24.4132 -141.898 main 1437 1402 P_____________ EP071992 24.4276 -141.900 TS 37 1004 0 10 298
1992195N14254 1992 51 EP CP FRANK 1992-07-22 18:00:00 TS 24.6750 -142.400 35 1005 hurdat_epa main 1402 1373 O_____________ hurdat_epa EP071992 24.7000 -142.400 TS 35 1005 0 10 302
1992195N14254 1992 51 EP CP FRANK 1992-07-22 21:00:00 TS 24.9498 -142.830 main 1373 1351 P_____________ EP071992 24.9623 -142.816 TS 32 1005 -1 10 310
1992195N14254 1992 51 EP CP FRANK 1992-07-23 00:00:00 TS 25.3000 -143.225 30 1006 hurdat_epa main 1356 1341 O_____________ hurdat_epa EP071992 25.3000 -143.200 TD 30 1006 -1 11 320
1992195N14254 1992 51 EP CP FRANK 1992-07-23 03:00:00 TS 25.7872 -143.599 main 1346 1334 P_____________ EP071992 25.7997 -143.577 TD 30 1007 -1 12 324
1992195N14254 1992 51 EP CP FRANK 1992-07-23 06:00:00 TS 26.2714 -144.000 30 1008 hurdat_epa main 1340 1315 O_____________ hurdat_epa EP071992 26.3000 -144.000 TD 30 1008 -1 12 317
1992195N14254 1992 51 EP CP FRANK 1992-07-23 09:00:00 TS 26.6203 -144.478 main 1315 1294 P_____________ EP071992 26.6455 -144.580 TD 27 1008 -1 11 307
1992195N14254 1992 51 EP CP FRANK 1992-07-23 12:00:00 TS 26.9000 -144.950 25 1009 hurdat_epa main 1300 1289 O_____________ hurdat_epa EP071992 26.9000 -145.100 TD 25 1009 -1 9 309
1992195N14254 1992 51 EP CP FRANK 1992-07-23 15:00:00 NR 27.1775 -145.253 main 1288 1286 P_____________ EP071992 27.1096 -145.378 TD 25 -1 8 316
1992195N14254 1992 51 EP CP FRANK 1992-07-23 18:00:00 NR 27.4500 -145.550 25 1010 cphc main 1285 O_____________ jtwc_ep EP071992 27.3000 -145.500 25 8 316

IBTrACS Databaseについて

本データベースは、米国NOAAが公開する1842年以降の世界の熱帯低気圧のベストトラックデータアーカイブInternational Best Track Archive for Climate Stewardship (IBTrACS)を、ウェブで閲覧しやすい形式に変換したものです。

最終更新日:2021-10-08